Time;durP1;ratioP1;P1;durP2;ratioP2;P2;SDS_P1;SDS_P2;PMS_P1;PMS_P2;Temp;Humidity;BMP_temperature;BMP_pressure;BME280_temperature;BME280_humidity;BME280_pressure;Samples;Min_cycle;Max_cycle;Signal;HPM_P1;HPM_P2
2022/03/15 00:01:02;;;;;;;72.55;32.42;;;;;;;;;;5083801;28;20027;-46
2022/03/15 00:03:28;;;;;;;70.15;29.92;;;;;;;;;;5085024;28;20197;-45
2022/03/15 00:05:56;;;;;;;57.42;26.75;;;;;;;;;;5083840;28;20498;-44
2022/03/15 00:08:22;;;;;;;57.00;25.00;;;;;;;;;;5083323;28;20020;-44
2022/03/15 00:10:49;;;;;;;59.47;27.25;;;;;;;;;;5083201;28;20027;-44
2022/03/15 00:13:17;;;;;;;97.90;35.47;;;;;;;;;;5083160;27;20020;-48
2022/03/15 00:15:44;;;;;;;86.93;32.65;;;;;;;;;;5083662;28;20067;-44
2022/03/15 00:18:10;;;;;;;69.82;28.65;;;;;;;;;;5083116;28;20061;-46
2022/03/15 00:20:36;;;;;;;64.07;29.63;;;;;;;;;;5084278;28;20077;-44
2022/03/15 00:23:07;;;;;;;59.92;27.20;;;;;;;;;;5083361;27;20074;-45
2022/03/15 00:25:34;;;;;;;55.05;25.58;;;;;;;;;;5083980;28;20131;-46
2022/03/15 00:28:00;;;;;;;63.17;28.67;;;;;;;;;;5083193;27;20024;-46
2022/03/15 00:30:26;;;;;;;78.97;32.17;;;;;;;;;;5083108;28;20024;-44
2022/03/15 00:32:52;;;;;;;89.25;32.80;;;;;;;;;;5083433;28;20032;-44
2022/03/15 00:35:19;;;;;;;79.40;37.25;;;;;;;;;;5083435;28;20027;-46
2022/03/15 00:37:46;;;;;;;77.53;31.10;;;;;;;;;;5075605;28;20051;-43
2022/03/15 00:40:13;;;;;;;88.13;37.72;;;;;;;;;;5082907;28;20035;-43
2022/03/15 00:42:47;;;;;;;65.05;32.00;;;;;;;;;;5083042;28;20031;-46
2022/03/15 00:45:13;;;;;;;61.67;30.60;;;;;;;;;;5084498;28;20034;-46
2022/03/15 00:47:39;;;;;;;50.13;24.38;;;;;;;;;;5082928;28;20491;-47
2022/03/15 00:50:05;;;;;;;63.47;28.50;;;;;;;;;;5083346;27;20099;-47
2022/03/15 00:52:31;;;;;;;49.35;25.60;;;;;;;;;;5082075;28;20028;-46
2022/03/15 00:54:57;;;;;;;60.00;27.20;;;;;;;;;;5083134;28;20032;-46
2022/03/15 00:57:23;;;;;;;44.78;22.70;;;;;;;;;;5083584;28;20564;-46
2022/03/15 00:59:51;;;;;;;43.92;23.60;;;;;;;;;;5082978;28;20330;-42
2022/03/15 01:02:18;;;;;;;41.67;22.08;;;;;;;;;;5083020;28;20039;-43
2022/03/15 01:04:44;;;;;;;50.47;24.40;;;;;;;;;;5083213;28;20451;-43
2022/03/15 01:07:13;;;;;;;54.58;27.40;;;;;;;;;;5082802;28;20031;-43
2022/03/15 01:09:40;;;;;;;49.55;24.00;;;;;;;;;;5083768;28;20491;-43
2022/03/15 01:12:06;;;;;;;44.58;23.65;;;;;;;;;;5083193;28;20051;-43
2022/03/15 01:14:33;;;;;;;52.47;25.58;;;;;;;;;;5095280;28;20103;-44
2022/03/15 01:16:59;;;;;;;47.75;25.45;;;;;;;;;;5113710;28;20402;-44
2022/03/15 01:19:25;;;;;;;49.65;24.98;;;;;;;;;;5113885;28;20073;-45
2022/03/15 01:21:52;;;;;;;52.80;26.83;;;;;;;;;;5114275;28;20054;-46
2022/03/15 01:24:18;;;;;;;54.28;29.98;;;;;;;;;;5113703;28;20024;-44
2022/03/15 01:26:45;;;;;;;62.67;33.35;;;;;;;;;;5113590;28;20032;-44
2022/03/15 01:29:11;;;;;;;50.42;27.80;;;;;;;;;;5113505;28;20023;-43
2022/03/15 01:31:37;;;;;;;59.67;31.65;;;;;;;;;;5113725;28;20024;-45
2022/03/15 01:34:03;;;;;;;49.72;26.58;;;;;;;;;;5113757;28;20149;-43
2022/03/15 01:36:34;;;;;;;51.03;26.63;;;;;;;;;;5113611;28;20042;-45
2022/03/15 01:39:04;;;;;;;49.13;24.77;;;;;;;;;;5113513;28;20102;-43
2022/03/15 01:41:31;;;;;;;49.60;23.25;;;;;;;;;;5113491;28;20103;-43
2022/03/15 01:43:57;;;;;;;40.67;22.00;;;;;;;;;;5113571;28;20020;-43
2022/03/15 01:46:23;;;;;;;45.58;22.40;;;;;;;;;;5113642;28;20027;-43
2022/03/15 01:48:49;;;;;;;53.05;24.63;;;;;;;;;;5113353;28;20048;-43
2022/03/15 01:51:16;;;;;;;53.78;26.02;;;;;;;;;;5113548;28;20106;-45
2022/03/15 01:53:44;;;;;;;58.60;27.92;;;;;;;;;;5113160;28;20028;-46
2022/03/15 01:56:10;;;;;;;43.90;22.63;;;;;;;;;;5113566;28;20036;-43
2022/03/15 01:58:36;;;;;;;61.78;30.20;;;;;;;;;;5113494;28;20425;-45
2022/03/15 02:01:03;;;;;;;45.67;23.45;;;;;;;;;;5113440;28;20494;-47
2022/03/15 02:03:30;;;;;;;55.90;26.73;;;;;;;;;;5115411;28;20053;-44
2022/03/15 02:05:56;;;;;;;41.33;21.77;;;;;;;;;;5117226;28;20054;-45
2022/03/15 02:08:23;;;;;;;58.05;30.02;;;;;;;;;;5117366;28;20379;-43
2022/03/15 02:10:49;;;;;;;52.08;26.25;;;;;;;;;;5117120;28;20019;-48
2022/03/15 02:13:15;;;;;;;59.00;31.55;;;;;;;;;;5117149;28;20020;-44
2022/03/15 02:15:41;;;;;;;53.28;27.00;;;;;;;;;;5116790;28;20031;-43
2022/03/15 02:18:07;;;;;;;42.83;23.17;;;;;;;;;;5116658;28;20024;-42
2022/03/15 02:20:36;;;;;;;44.28;21.90;;;;;;;;;;5116895;28;20365;-44
2022/03/15 02:23:04;;;;;;;47.63;23.67;;;;;;;;;;5116770;28;20012;-43
2022/03/15 02:25:30;;;;;;;49.72;26.42;;;;;;;;;;5116804;28;20498;-42
2022/03/15 02:27:57;;;;;;;35.38;20.92;;;;;;;;;;5116813;28;20024;-44
2022/03/15 02:30:23;;;;;;;44.70;20.45;;;;;;;;;;5104793;28;20016;-46
2022/03/15 02:32:52;;;;;;;36.67;19.52;;;;;;;;;;5116596;28;20036;-45
2022/03/15 02:35:20;;;;;;;33.97;18.63;;;;;;;;;;5116315;28;20031;-44
2022/03/15 02:37:48;;;;;;;31.58;18.08;;;;;;;;;;5116359;28;20019;-47
2022/03/15 02:40:14;;;;;;;34.95;17.92;;;;;;;;;;5115838;28;20019;-45
2022/03/15 02:42:40;;;;;;;31.30;18.65;;;;;;;;;;5116607;28;20441;-45
2022/03/15 02:45:07;;;;;;;35.20;18.83;;;;;;;;;;5116246;28;20383;-45
2022/03/15 02:47:33;;;;;;;41.90;22.25;;;;;;;;;;5116069;28;20071;-45
2022/03/15 02:49:59;;;;;;;37.08;21.08;;;;;;;;;;5116210;28;20028;-45
2022/03/15 02:52:29;;;;;;;44.28;20.98;;;;;;;;;;5116026;28;20484;-45
2022/03/15 02:54:55;;;;;;;33.55;17.80;;;;;;;;;;5116258;28;20044;-45
2022/03/15 02:57:23;;;;;;;38.40;22.33;;;;;;;;;;5115170;28;20027;-45
2022/03/15 02:59:51;;;;;;;40.78;20.40;;;;;;;;;;5115989;28;20460;-45
2022/03/15 03:02:18;;;;;;;31.98;16.70;;;;;;;;;;5116041;28;20018;-45
2022/03/15 03:04:44;;;;;;;34.72;19.80;;;;;;;;;;5115937;28;20019;-44
2022/03/15 03:07:11;;;;;;;40.38;19.63;;;;;;;;;;5115775;28;20020;-45
2022/03/15 03:09:37;;;;;;;32.83;17.88;;;;;;;;;;5116057;28;20104;-44
2022/03/15 03:12:03;;;;;;;41.65;20.33;;;;;;;;;;5115831;28;20028;-44
2022/03/15 03:14:29;;;;;;;39.03;20.83;;;;;;;;;;5115195;28;20066;-44
2022/03/15 03:16:55;;;;;;;48.67;23.67;;;;;;;;;;5115643;28;20035;-44
2022/03/15 03:19:23;;;;;;;38.88;20.27;;;;;;;;;;5115842;28;20034;-45
2022/03/15 03:21:51;;;;;;;39.78;19.70;;;;;;;;;;5115422;28;20024;-44
2022/03/15 03:24:24;;;;;;;35.92;19.35;;;;;;;;;;5115619;28;20030;-44
2022/03/15 03:26:50;;;;;;;40.08;21.83;;;;;;;;;;5115347;28;20055;-43
2022/03/15 03:29:21;;;;;;;42.13;23.00;;;;;;;;;;5115278;28;20020;-46
2022/03/15 03:31:48;;;;;;;49.95;24.55;;;;;;;;;;5107120;28;20028;-44
2022/03/15 03:34:15;;;;;;;50.97;26.67;;;;;;;;;;5115536;28;20056;-45
2022/03/15 03:36:41;;;;;;;54.60;26.75;;;;;;;;;;5115108;28;20032;-44
2022/03/15 03:39:07;;;;;;;54.42;24.25;;;;;;;;;;5115242;28;20539;-44
2022/03/15 03:41:34;;;;;;;44.58;23.25;;;;;;;;;;5115216;28;20062;-44
2022/03/15 03:44:01;;;;;;;43.75;22.95;;;;;;;;;;5115167;28;20096;-43
2022/03/15 03:46:27;;;;;;;48.95;24.77;;;;;;;;;;5096464;28;20443;-45
2022/03/15 03:48:55;;;;;;;38.67;21.10;;;;;;;;;;5114990;28;20059;-44
2022/03/15 03:51:21;;;;;;;48.50;23.65;;;;;;;;;;5114842;28;20031;-43
2022/03/15 03:53:48;;;;;;;43.70;23.13;;;;;;;;;;5115167;28;20032;-44
2022/03/15 03:56:14;;;;;;;48.25;23.70;;;;;;;;;;5114984;28;20383;-44
2022/03/15 03:58:40;;;;;;;45.35;23.30;;;;;;;;;;5114780;28;20155;-45
2022/03/15 04:01:06;;;;;;;52.97;27.05;;;;;;;;;;5114973;28;20027;-45
2022/03/15 04:03:33;;;;;;;43.40;22.52;;;;;;;;;;5114774;28;20055;-43
2022/03/15 04:06:04;;;;;;;42.90;22.73;;;;;;;;;;5114595;28;20031;-44
2022/03/15 04:08:34;;;;;;;41.40;22.15;;;;;;;;;;5114755;28;20022;-44
2022/03/15 04:11:00;;;;;;;49.88;23.58;;;;;;;;;;5114448;28;20031;-44
2022/03/15 04:13:26;;;;;;;44.88;22.13;;;;;;;;;;5114683;28;20066;-44
2022/03/15 04:15:52;;;;;;;41.40;22.23;;;;;;;;;;5114467;28;20024;-44
2022/03/15 04:18:18;;;;;;;39.22;20.48;;;;;;;;;;5114342;28;20372;-44
2022/03/15 04:20:44;;;;;;;41.67;22.05;;;;;;;;;;5114347;28;20030;-45
2022/03/15 04:23:11;;;;;;;49.78;26.52;;;;;;;;;;5114342;28;20063;-43
2022/03/15 04:25:38;;;;;;;52.42;25.35;;;;;;;;;;5114446;28;20422;-44
2022/03/15 04:28:07;;;;;;;50.90;27.13;;;;;;;;;;5113735;28;20065;-44
2022/03/15 04:30:33;;;;;;;53.30;24.25;;;;;;;;;;5114384;28;20028;-44
2022/03/15 04:33:01;;;;;;;45.58;24.17;;;;;;;;;;5114259;28;20016;-44
2022/03/15 04:35:29;;;;;;;50.75;24.17;;;;;;;;;;5114085;28;20019;-43
2022/03/15 04:37:55;;;;;;;48.33;24.95;;;;;;;;;;5114224;28;20055;-44
2022/03/15 04:40:21;;;;;;;47.13;23.80;;;;;;;;;;5114322;28;20467;-44
2022/03/15 04:42:48;;;;;;;42.97;22.75;;;;;;;;;;5114142;28;20027;-43
2022/03/15 04:45:15;;;;;;;41.30;20.75;;;;;;;;;;5113942;28;20098;-43
2022/03/15 04:47:41;;;;;;;40.10;20.00;;;;;;;;;;5113632;28;20040;-43
2022/03/15 04:50:09;;;;;;;41.50;20.77;;;;;;;;;;5113846;28;20089;-45
2022/03/15 04:52:35;;;;;;;40.78;21.55;;;;;;;;;;5113940;28;20081;-44
2022/03/15 04:55:05;;;;;;;39.53;19.85;;;;;;;;;;5113987;28;20023;-43
2022/03/15 04:57:31;;;;;;;39.05;19.25;;;;;;;;;;5113723;28;20114;-46
2022/03/15 04:59:57;;;;;;;41.50;23.77;;;;;;;;;;5113699;28;20031;-46
2022/03/15 05:02:24;;;;;;;39.50;21.88;;;;;;;;;;5114049;28;20027;-44
2022/03/15 05:04:52;;;;;;;39.70;22.33;;;;;;;;;;5113760;28;20019;-44
2022/03/15 05:07:21;;;;;;;38.38;21.17;;;;;;;;;;5113973;28;20018;-44
2022/03/15 05:12:32;;;;;;;47.55;26.02;;;;;;;;;;5113893;28;20026;-45
2022/03/15 05:14:58;;;;;;;48.58;26.30;;;;;;;;;;5113642;28;20019;-44
2022/03/15 05:17:24;;;;;;;51.33;25.85;;;;;;;;;;5113485;28;20086;-46
2022/03/15 05:19:50;;;;;;;56.60;27.80;;;;;;;;;;5113631;28;20028;-44
2022/03/15 05:22:17;;;;;;;46.17;23.98;;;;;;;;;;5113859;28;20114;-44
2022/03/15 05:24:43;;;;;;;49.30;25.83;;;;;;;;;;5095328;28;20399;-48
2022/03/15 05:27:09;;;;;;;51.58;26.30;;;;;;;;;;5113557;28;20055;-44
2022/03/15 05:29:35;;;;;;;48.58;25.70;;;;;;;;;;5113561;28;20027;-47
2022/03/15 05:32:01;;;;;;;52.95;26.52;;;;;;;;;;5113391;28;20032;-45
2022/03/15 05:34:27;;;;;;;49.15;27.83;;;;;;;;;;5113671;28;20050;-45
2022/03/15 05:36:53;;;;;;;47.33;25.77;;;;;;;;;;5113454;28;20388;-44
2022/03/15 05:39:22;;;;;;;42.20;24.83;;;;;;;;;;5116958;28;20043;-46
2022/03/15 05:41:48;;;;;;;52.00;27.30;;;;;;;;;;5109565;28;20159;-45
2022/03/15 05:44:14;;;;;;;50.03;27.27;;;;;;;;;;5098840;28;20036;-44
2022/03/15 05:46:40;;;;;;;51.20;27.35;;;;;;;;;;5117316;28;20352;-44
2022/03/15 05:49:06;;;;;;;47.53;24.35;;;;;;;;;;5117331;28;20069;-46
2022/03/15 05:51:33;;;;;;;50.40;24.80;;;;;;;;;;5117396;28;20027;-47
2022/03/15 05:54:00;;;;;;;52.90;27.33;;;;;;;;;;5117547;28;20020;-50
2022/03/15 05:56:26;;;;;;;48.97;27.52;;;;;;;;;;5117132;28;20028;-47
2022/03/15 05:58:52;;;;;;;44.05;24.85;;;;;;;;;;5117290;28;20016;-45
2022/03/15 06:01:18;;;;;;;53.10;28.75;;;;;;;;;;5117116;28;20114;-45
2022/03/15 06:03:44;;;;;;;104.57;55.67;;;;;;;;;;5111962;28;20099;-45
2022/03/15 06:06:10;;;;;;;55.78;29.83;;;;;;;;;;5116594;28;20028;-46
2022/03/15 06:08:37;;;;;;;50.50;26.35;;;;;;;;;;5117237;28;20023;-45
2022/03/15 06:11:03;;;;;;;66.40;34.38;;;;;;;;;;5117290;28;20043;-44
2022/03/15 06:13:29;;;;;;;51.95;28.27;;;;;;;;;;5116957;28;20038;-48
2022/03/15 06:15:55;;;;;;;60.20;32.75;;;;;;;;;;5116665;28;20452;-44
2022/03/15 06:18:21;;;;;;;55.72;33.63;;;;;;;;;;5116598;28;20498;-45
2022/03/15 06:20:47;;;;;;;102.72;57.30;;;;;;;;;;5117007;28;20024;-44
2022/03/15 06:23:18;;;;;;;61.83;32.63;;;;;;;;;;5116695;28;20026;-47
2022/03/15 06:25:44;;;;;;;50.50;28.98;;;;;;;;;;5116678;28;20479;-49
2022/03/15 06:28:10;;;;;;;57.78;33.67;;;;;;;;;;5116741;28;20030;-45
2022/03/15 06:30:37;;;;;;;42.10;28.00;;;;;;;;;;5116614;28;20471;-47
2022/03/15 06:33:05;;;;;;;70.00;40.65;;;;;;;;;;5116425;28;20061;-47
2022/03/15 06:35:32;;;;;;;80.70;50.53;;;;;;;;;;5116349;28;20040;-47
2022/03/15 06:38:00;;;;;;;59.13;36.60;;;;;;;;;;5116537;28;20034;-44
2022/03/15 06:40:26;;;;;;;68.18;43.00;;;;;;;;;;5116503;28;20543;-47
2022/03/15 06:42:53;;;;;;;43.70;29.63;;;;;;;;;;5116646;28;20028;-46
2022/03/15 06:45:22;;;;;;;41.15;24.13;;;;;;;;;;5116509;28;20491;-44
2022/03/15 06:47:49;;;;;;;47.70;31.27;;;;;;;;;;5116069;28;20084;-45
2022/03/15 06:50:15;;;;;;;51.92;26.30;;;;;;;;;;5115300;28;20388;-45
2022/03/15 06:52:42;;;;;;;128.32;86.78;;;;;;;;;;5116311;28;20030;-47
2022/03/15 06:55:09;;;;;;;49.75;31.52;;;;;;;;;;5116305;28;20066;-47
2022/03/15 06:57:35;;;;;;;54.50;33.53;;;;;;;;;;5115864;28;20042;-46
2022/03/15 07:00:03;;;;;;;41.25;27.35;;;;;;;;;;5116062;28;20047;-45
2022/03/15 07:02:29;;;;;;;35.83;23.90;;;;;;;;;;5116165;28;20020;-44
2022/03/15 07:04:55;;;;;;;43.55;25.50;;;;;;;;;;5116247;28;20073;-43
2022/03/15 07:07:23;;;;;;;30.15;17.08;;;;;;;;;;5116252;28;20368;-43
2022/03/15 07:09:49;;;;;;;30.55;19.15;;;;;;;;;;5115975;28;20502;-43
2022/03/15 07:12:15;;;;;;;36.65;23.25;;;;;;;;;;5116221;28;20050;-45
2022/03/15 07:14:43;;;;;;;23.63;16.30;;;;;;;;;;5115902;28;20034;-44
2022/03/15 07:17:11;;;;;;;35.20;22.88;;;;;;;;;;5115285;28;20066;-45
2022/03/15 07:19:37;;;;;;;28.08;18.48;;;;;;;;;;5116085;28;20027;-45
2022/03/15 07:22:06;;;;;;;41.70;30.52;;;;;;;;;;5115655;28;20031;-45
2022/03/15 07:24:32;;;;;;;27.92;18.48;;;;;;;;;;5115594;28;20463;-44
2022/03/15 07:26:59;;;;;;;34.88;21.08;;;;;;;;;;5115624;28;20027;-44
2022/03/15 07:29:25;;;;;;;23.23;17.15;;;;;;;;;;5115556;28;20024;-46
2022/03/15 07:31:51;;;;;;;21.67;14.70;;;;;;;;;;5115248;28;20118;-44
2022/03/15 07:34:17;;;;;;;32.67;16.85;;;;;;;;;;5115365;28;20455;-44
2022/03/15 07:36:43;;;;;;;27.98;19.27;;;;;;;;;;5115444;28;20043;-45
2022/03/15 07:39:09;;;;;;;33.03;21.95;;;;;;;;;;5115186;28;20026;-45
2022/03/15 07:41:40;;;;;;;22.45;15.90;;;;;;;;;;5115185;28;20051;-45
2022/03/15 07:44:09;;;;;;;71.13;42.38;;;;;;;;;;5115180;28;20020;-45
2022/03/15 07:46:36;;;;;;;40.10;27.45;;;;;;;;;;5114995;28;20480;-46
2022/03/15 07:49:03;;;;;;;31.60;21.33;;;;;;;;;;5114972;28;20047;-46
2022/03/15 07:51:29;;;;;;;21.50;16.38;;;;;;;;;;5114944;28;20030;-46
2022/03/15 07:53:55;;;;;;;33.53;24.65;;;;;;;;;;5115454;28;20081;-46
2022/03/15 07:56:22;;;;;;;24.52;15.95;;;;;;;;;;5115006;28;20038;-46
2022/03/15 07:58:48;;;;;;;27.50;14.68;;;;;;;;;;5114994;28;20471;-46
2022/03/15 08:01:14;;;;;;;25.70;16.55;;;;;;;;;;5114743;28;20474;-47
2022/03/15 08:03:43;;;;;;;22.70;16.30;;;;;;;;;;5096587;28;20107;-45
2022/03/15 08:06:13;;;;;;;25.58;17.70;;;;;;;;;;5114705;28;20028;-44
2022/03/15 08:08:40;;;;;;;23.35;15.07;;;;;;;;;;5114855;28;20039;-45
2022/03/15 08:11:07;;;;;;;27.05;18.83;;;;;;;;;;5114653;28;20476;-45
2022/03/15 08:13:36;;;;;;;31.48;17.75;;;;;;;;;;5114724;28;20434;-46
2022/03/15 08:16:03;;;;;;;30.80;19.80;;;;;;;;;;5114450;28;20039;-45
2022/03/15 08:18:29;;;;;;;32.30;19.52;;;;;;;;;;5114353;28;20036;-46
2022/03/15 08:20:56;;;;;;;32.33;18.23;;;;;;;;;;5114591;28;20384;-45
2022/03/15 08:23:23;;;;;;;28.55;17.90;;;;;;;;;;5096185;28;20032;-43
2022/03/15 08:25:49;;;;;;;28.00;17.52;;;;;;;;;;5114499;28;20024;-44
2022/03/15 08:28:15;;;;;;;35.25;17.05;;;;;;;;;;5114471;28;20023;-44
2022/03/15 08:30:41;;;;;;;23.38;15.13;;;;;;;;;;5114186;28;20103;-45
2022/03/15 08:33:07;;;;;;;22.23;14.43;;;;;;;;;;5114612;28;20019;-45
2022/03/15 08:35:34;;;;;;;23.58;14.32;;;;;;;;;;5114258;28;20157;-45
2022/03/15 08:38:00;;;;;;;18.92;12.25;;;;;;;;;;5114098;28;20476;-45
2022/03/15 08:40:26;;;;;;;20.85;13.07;;;;;;;;;;5113878;28;20441;-45
2022/03/15 08:42:52;;;;;;;22.35;13.07;;;;;;;;;;5114276;28;20107;-45
2022/03/15 08:45:18;;;;;;;22.08;12.18;;;;;;;;;;5113940;28;20023;-45
2022/03/15 08:47:45;;;;;;;17.98;11.68;;;;;;;;;;5113917;28;20048;-45
2022/03/15 08:50:11;;;;;;;20.38;11.55;;;;;;;;;;5114155;28;20030;-45
2022/03/15 08:52:42;;;;;;;24.20;12.63;;;;;;;;;;5113915;28;20019;-45
2022/03/15 08:55:08;;;;;;;20.73;12.82;;;;;;;;;;5114337;28;20427;-43
2022/03/15 08:57:35;;;;;;;17.35;11.05;;;;;;;;;;5113995;28;20042;-45
2022/03/15 09:00:02;;;;;;;17.33;10.30;;;;;;;;;;5113976;28;20356;-44
2022/03/15 09:02:28;;;;;;;13.65;9.27;;;;;;;;;;5113635;28;20030;-45
2022/03/15 09:04:55;;;;;;;18.65;10.10;;;;;;;;;;5113991;28;20533;-46
2022/03/15 09:07:21;;;;;;;11.52;8.15;;;;;;;;;;5113918;28;20023;-46
2022/03/15 09:09:47;;;;;;;11.70;8.50;;;;;;;;;;5113950;28;20388;-47
2022/03/15 09:12:14;;;;;;;15.40;8.70;;;;;;;;;;5113394;28;20024;-45
2022/03/15 09:14:40;;;;;;;13.00;8.13;;;;;;;;;;5113630;28;20031;-44
2022/03/15 09:17:08;;;;;;;11.45;7.57;;;;;;;;;;5113273;28;20139;-45
2022/03/15 09:19:35;;;;;;;12.73;7.47;;;;;;;;;;5113642;28;20064;-44
2022/03/15 09:22:03;;;;;;;9.55;6.15;;;;;;;;;;5113719;28;20023;-44
2022/03/15 09:24:30;;;;;;;11.10;7.43;;;;;;;;;;5113804;28;20099;-44
2022/03/15 09:26:56;;;;;;;13.82;8.50;;;;;;;;;;5113586;28;20023;-45
2022/03/15 09:29:23;;;;;;;16.10;8.30;;;;;;;;;;5113651;28;20035;-45
2022/03/15 09:31:49;;;;;;;14.70;7.63;;;;;;;;;;5095816;28;20035;-45
2022/03/15 09:34:17;;;;;;;14.77;8.70;;;;;;;;;;5113625;28;20015;-45
2022/03/15 09:36:47;;;;;;;14.57;7.50;;;;;;;;;;5113553;28;20036;-46
2022/03/15 09:39:13;;;;;;;15.15;9.00;;;;;;;;;;5113547;28;20024;-45
2022/03/15 09:41:40;;;;;;;14.35;8.60;;;;;;;;;;5113597;28;20026;-44
2022/03/15 09:44:08;;;;;;;35.97;22.35;;;;;;;;;;5113444;28;20045;-45
2022/03/15 09:46:38;;;;;;;28.67;15.25;;;;;;;;;;5113284;28;20103;-46
2022/03/15 09:49:07;;;;;;;11.20;8.48;;;;;;;;;;5113287;28;20051;-48
2022/03/15 09:51:34;;;;;;;20.00;13.10;;;;;;;;;;5113490;28;20383;-45
2022/03/15 09:54:01;;;;;;;13.93;9.55;;;;;;;;;;5113761;28;20114;-45
2022/03/15 09:56:27;;;;;;;8.63;6.07;;;;;;;;;;5113266;28;20035;-46
2022/03/15 09:58:53;;;;;;;24.45;17.33;;;;;;;;;;5113447;28;20055;-46
2022/03/15 10:01:20;;;;;;;36.70;22.73;;;;;;;;;;5113316;28;20073;-45
2022/03/15 10:03:47;;;;;;;17.10;11.48;;;;;;;;;;5113303;28;20475;-47
2022/03/15 10:06:14;;;;;;;11.15;7.55;;;;;;;;;;5113376;28;20023;-48
2022/03/15 10:08:40;;;;;;;24.73;14.38;;;;;;;;;;5113355;28;20050;-47
2022/03/15 10:11:07;;;;;;;12.75;6.95;;;;;;;;;;5113150;28;20023;-48
2022/03/15 10:13:33;;;;;;;49.17;31.55;;;;;;;;;;5113085;28;20020;-46
2022/03/15 10:16:03;;;;;;;15.05;11.00;;;;;;;;;;5113039;28;20081;-46
2022/03/15 10:18:30;;;;;;;10.23;6.32;;;;;;;;;;5112838;28;20472;-46
2022/03/15 10:20:57;;;;;;;7.78;4.75;;;;;;;;;;5113243;28;20421;-45
2022/03/15 10:23:29;;;;;;;9.95;5.93;;;;;;;;;;5112970;28;20371;-46
2022/03/15 10:25:56;;;;;;;9.52;7.18;;;;;;;;;;5115640;28;20020;-46
2022/03/15 10:28:22;;;;;;;9.35;5.35;;;;;;;;;;5116716;28;20031;-44
2022/03/15 10:30:49;;;;;;;44.50;27.15;;;;;;;;;;5117004;28;20379;-46
2022/03/15 10:33:16;;;;;;;10.07;6.05;;;;;;;;;;5116646;28;20528;-46
2022/03/15 10:35:43;;;;;;;26.70;19.35;;;;;;;;;;5116671;28;20066;-47
2022/03/15 10:38:10;;;;;;;12.57;9.23;;;;;;;;;;5116695;28;20034;-48
2022/03/15 10:40:39;;;;;;;14.02;8.77;;;;;;;;;;5116748;28;20051;-49
2022/03/15 10:43:09;;;;;;;15.05;10.98;;;;;;;;;;5116717;28;20019;-51
2022/03/15 10:45:35;;;;;;;22.73;17.58;;;;;;;;;;5116535;28;20476;-49
2022/03/15 10:48:02;;;;;;;13.38;8.75;;;;;;;;;;5116198;28;20044;-49
2022/03/15 10:50:33;;;;;;;9.35;6.25;;;;;;;;;;5116493;28;20038;-47
2022/03/15 10:52:59;;;;;;;8.88;7.22;;;;;;;;;;5116133;28;20027;-49
2022/03/15 10:55:28;;;;;;;17.88;11.43;;;;;;;;;;5116107;28;20030;-48
2022/03/15 10:58:07;;;;;;;19.00;12.13;;;;;;;;;;5116065;28;20515;-48
2022/03/15 11:00:37;;;;;;;23.45;13.40;;;;;;;;;;5116243;28;20028;-48
2022/03/15 11:03:13;;;;;;;37.33;22.85;;;;;;;;;;5116173;28;20051;-48
2022/03/15 11:05:40;;;;;;;49.03;31.00;;;;;;;;;;5116126;28;20027;-49
2022/03/15 11:08:07;;;;;;;45.97;27.75;;;;;;;;;;5115938;28;20020;-48
2022/03/15 11:10:34;;;;;;;31.13;21.63;;;;;;;;;;5115971;28;20114;-48
2022/03/15 11:13:05;;;;;;;24.52;16.13;;;;;;;;;;5116005;28;20030;-46
2022/03/15 11:15:31;;;;;;;21.42;14.32;;;;;;;;;;5115915;28;20065;-48
2022/03/15 11:17:59;;;;;;;59.25;40.60;;;;;;;;;;5115729;28;20036;-48
2022/03/15 11:20:25;;;;;;;13.85;9.73;;;;;;;;;;5115728;28;20024;-47
2022/03/15 11:22:54;;;;;;;29.83;17.52;;;;;;;;;;5115561;28;20019;-47
2022/03/15 11:25:21;;;;;;;32.97;17.75;;;;;;;;;;5115857;28;20024;-47
2022/03/15 11:27:50;;;;;;;57.78;39.05;;;;;;;;;;5115674;28;20020;-48
2022/03/15 11:30:17;;;;;;;38.53;25.08;;;;;;;;;;5115610;28;20024;-47
2022/03/15 11:32:44;;;;;;;23.52;14.93;;;;;;;;;;5115377;28;20020;-48
2022/03/15 11:35:13;;;;;;;28.45;19.85;;;;;;;;;;5115345;28;20440;-47
2022/03/15 11:37:40;;;;;;;42.95;28.95;;;;;;;;;;5115100;28;20055;-46
2022/03/15 11:40:08;;;;;;;18.15;11.55;;;;;;;;;;5115365;28;20042;-47
2022/03/15 11:42:35;;;;;;;21.88;13.93;;;;;;;;;;5106667;28;20106;-49
2022/03/15 11:45:20;;;;;;;35.33;21.02;;;;;;;;;;5115211;28;20024;-46
2022/03/15 11:47:46;;;;;;;15.73;6.85;;;;;;;;;;5121138;27;20046;-50
2022/03/15 11:50:21;;;;;;;11.02;7.68;;;;;;;;;;5135676;27;20030;-49
2022/03/15 11:53:03;;;;;;;22.90;14.35;;;;;;;;;;5117327;27;20036;-48
2022/03/15 11:55:44;;;;;;;17.83;9.00;;;;;;;;;;5135548;27;20023;-49
2022/03/15 11:58:11;;;;;;;29.95;18.70;;;;;;;;;;5135420;27;20039;-49
2022/03/15 12:00:46;;;;;;;28.15;16.92;;;;;;;;;;5135494;27;20107;-45
2022/03/15 12:03:15;;;;;;;17.88;10.73;;;;;;;;;;5135443;27;20023;-45
2022/03/15 12:05:55;;;;;;;19.75;11.20;;;;;;;;;;5135289;27;20023;-45
2022/03/15 12:08:26;;;;;;;7.05;4.72;;;;;;;;;;5135588;27;20450;-45
2022/03/15 12:10:58;;;;;;;12.45;6.80;;;;;;;;;;5135398;27;20024;-45
2022/03/15 12:13:39;;;;;;;13.50;8.75;;;;;;;;;;5135548;27;20485;-45
2022/03/15 12:16:24;;;;;;;8.15;4.10;;;;;;;;;;5135305;27;20030;-45
2022/03/15 12:19:00;;;;;;;11.63;6.80;;;;;;;;;;5135267;27;20036;-44
2022/03/15 12:21:26;;;;;;;7.28;5.93;;;;;;;;;;5135156;27;20445;-45
2022/03/15 12:23:54;;;;;;;17.33;8.77;;;;;;;;;;5135206;27;20467;-48
2022/03/15 12:26:24;;;;;;;12.38;6.70;;;;;;;;;;5135096;27;20027;-49
2022/03/15 12:28:58;;;;;;;10.23;6.22;;;;;;;;;;5135115;27;20383;-46
2022/03/15 12:31:34;;;;;;;11.60;5.90;;;;;;;;;;5134968;27;20019;-47
2022/03/15 12:34:01;;;;;;;14.45;6.65;;;;;;;;;;5134957;27;20026;-46
2022/03/15 12:36:35;;;;;;;7.50;5.15;;;;;;;;;;5134842;27;20034;-45
2022/03/15 12:39:09;;;;;;;12.55;6.95;;;;;;;;;;5134756;27;20487;-45
2022/03/15 12:41:35;;;;;;;12.18;6.38;;;;;;;;;;5134977;27;20413;-46
2022/03/15 12:44:01;;;;;;;19.27;9.43;;;;;;;;;;5134765;27;20062;-45
2022/03/15 12:46:30;;;;;;;18.17;9.13;;;;;;;;;;5134721;27;20068;-45
2022/03/15 12:48:57;;;;;;;11.57;7.00;;;;;;;;;;5133735;27;20170;-46
2022/03/15 12:51:23;;;;;;;9.02;4.97;;;;;;;;;;5134914;27;20407;-49
2022/03/15 12:53:50;;;;;;;13.80;6.00;;;;;;;;;;5135046;27;20375;-49
2022/03/15 12:56:16;;;;;;;9.95;5.85;;;;;;;;;;5134850;27;20015;-46
2022/03/15 12:58:43;;;;;;;9.77;6.00;;;;;;;;;;5134689;27;20031;-47
2022/03/15 13:01:10;;;;;;;16.10;8.18;;;;;;;;;;5134625;27;20479;-48
2022/03/15 13:03:38;;;;;;;13.25;9.20;;;;;;;;;;5134532;27;20497;-46
2022/03/15 13:06:04;;;;;;;47.67;29.65;;;;;;;;;;5134867;27;20034;-48
2022/03/15 13:08:32;;;;;;;16.15;10.55;;;;;;;;;;5134844;27;20027;-52
2022/03/15 13:11:03;;;;;;;8.93;5.78;;;;;;;;;;5134464;27;20087;-48
2022/03/15 13:13:30;;;;;;;13.57;6.20;;;;;;;;;;5134598;28;20027;-47
2022/03/15 13:15:58;;;;;;;8.65;5.70;;;;;;;;;;5134473;28;20027;-46
2022/03/15 13:18:25;;;;;;;12.02;6.65;;;;;;;;;;5134521;28;20050;-48
2022/03/15 13:21:01;;;;;;;12.68;6.15;;;;;;;;;;5115941;28;20546;-46
2022/03/15 13:23:28;;;;;;;13.52;7.75;;;;;;;;;;5134250;28;20027;-48
2022/03/15 13:25:59;;;;;;;11.40;6.55;;;;;;;;;;5134185;28;20024;-46
2022/03/15 13:28:30;;;;;;;10.93;6.65;;;;;;;;;;5134311;28;20068;-46
2022/03/15 13:31:06;;;;;;;9.55;6.32;;;;;;;;;;5134141;28;20497;-47
2022/03/15 13:33:32;;;;;;;13.63;5.80;;;;;;;;;;5134282;28;20420;-48
2022/03/15 13:36:01;;;;;;;11.10;5.65;;;;;;;;;;5134256;28;20023;-50
2022/03/15 13:38:29;;;;;;;8.07;5.57;;;;;;;;;;5134195;28;20363;-46
2022/03/15 13:40:55;;;;;;;8.82;6.47;;;;;;;;;;5134205;28;20019;-47
2022/03/15 13:43:22;;;;;;;11.20;5.30;;;;;;;;;;5134035;28;20379;-47
2022/03/15 13:45:49;;;;;;;10.35;5.65;;;;;;;;;;5133892;28;20534;-47
2022/03/15 13:48:25;;;;;;;13.10;5.78;;;;;;;;;;5134223;28;20055;-46
2022/03/15 13:51:22;;;;;;;7.68;5.22;;;;;;;;;;5134024;28;20193;-46
2022/03/15 13:53:50;;;;;;;9.85;6.10;;;;;;;;;;5050634;28;20033;-46
2022/03/15 13:56:20;;;;;;;9.48;6.68;;;;;;;;;;5050497;28;20025;-45
2022/03/15 13:59:12;;;;;;;10.75;5.97;;;;;;;;;;5051346;28;20052;-48
2022/03/15 14:01:39;;;;;;;13.38;7.93;;;;;;;;;;5050964;28;20037;-46
2022/03/15 14:04:08;;;;;;;14.00;8.18;;;;;;;;;;5054489;28;20041;-46
2022/03/15 14:06:35;;;;;;;12.02;6.57;;;;;;;;;;5054317;28;20029;-46
2022/03/15 14:09:04;;;;;;;7.82;5.38;;;;;;;;;;5054336;28;20037;-46
2022/03/15 14:11:32;;;;;;;9.55;5.32;;;;;;;;;;5054392;28;20052;-46
2022/03/15 14:14:07;;;;;;;8.82;5.47;;;;;;;;;;5054248;28;20496;-46
2022/03/15 14:16:38;;;;;;;14.00;7.00;;;;;;;;;;5054115;28;20032;-45
2022/03/15 14:19:07;;;;;;;14.02;7.15;;;;;;;;;;5054197;28;20040;-46
2022/03/15 14:21:33;;;;;;;38.45;25.33;;;;;;;;;;5054019;28;20056;-49
2022/03/15 14:24:00;;;;;;;28.20;16.88;;;;;;;;;;5054117;28;20112;-45
2022/03/15 14:26:28;;;;;;;17.25;11.63;;;;;;;;;;5054126;28;20021;-46